sensor_id;sensor_type;location;lat;lon;timestamp;P1;durP1;ratioP1;P2;durP2;ratioP2
3769;SDS011;1900;48.890;9.190;2023-02-28T00:00:21;4.90;;;3.43;;
3769;SDS011;1900;48.890;9.190;2023-02-28T00:02:47;5.70;;;3.70;;
3769;SDS011;1900;48.890;9.190;2023-02-28T00:05:15;3.97;;;3.37;;
3769;SDS011;1900;48.890;9.190;2023-02-28T00:07:42;8.80;;;4.33;;
3769;SDS011;1900;48.890;9.190;2023-02-28T00:10:09;6.10;;;3.43;;
3769;SDS011;1900;48.890;9.190;2023-02-28T00:12:37;6.07;;;3.30;;
3769;SDS011;1900;48.890;9.190;2023-02-28T00:15:08;4.50;;;3.73;;
3769;SDS011;1900;48.890;9.190;2023-02-28T00:17:35;4.37;;;3.17;;
3769;SDS011;1900;48.890;9.190;2023-02-28T00:20:02;7.57;;;3.43;;
3769;SDS011;1900;48.890;9.190;2023-02-28T00:22:29;5.00;;;3.27;;
3769;SDS011;1900;48.890;9.190;2023-02-28T00:24:55;5.97;;;3.17;;
3769;SDS011;1900;48.890;9.190;2023-02-28T00:27:21;4.63;;;3.30;;
3769;SDS011;1900;48.890;9.190;2023-02-28T00:29:47;5.00;;;3.40;;
3769;SDS011;1900;48.890;9.190;2023-02-28T00:32:13;5.73;;;3.30;;
3769;SDS011;1900;48.890;9.190;2023-02-28T00:34:38;6.37;;;3.57;;
3769;SDS011;1900;48.890;9.190;2023-02-28T00:37:05;5.13;;;3.10;;
3769;SDS011;1900;48.890;9.190;2023-02-28T00:39:33;8.13;;;3.80;;
3769;SDS011;1900;48.890;9.190;2023-02-28T00:41:59;5.40;;;3.80;;
3769;SDS011;1900;48.890;9.190;2023-02-28T00:44:25;5.03;;;3.57;;
3769;SDS011;1900;48.890;9.190;2023-02-28T00:46:51;6.10;;;3.90;;
3769;SDS011;1900;48.890;9.190;2023-02-28T00:49:23;6.83;;;3.23;;
3769;SDS011;1900;48.890;9.190;2023-02-28T00:51:49;6.00;;;3.60;;
3769;SDS011;1900;48.890;9.190;2023-02-28T00:54:15;3.50;;;3.20;;
3769;SDS011;1900;48.890;9.190;2023-02-28T00:56:41;6.60;;;3.87;;
3769;SDS011;1900;48.890;9.190;2023-02-28T00:59:06;6.53;;;3.43;;
3769;SDS011;1900;48.890;9.190;2023-02-28T01:01:32;6.00;;;3.33;;
3769;SDS011;1900;48.890;9.190;2023-02-28T01:03:58;9.33;;;3.67;;
3769;SDS011;1900;48.890;9.190;2023-02-28T01:06:24;4.30;;;3.93;;
3769;SDS011;1900;48.890;9.190;2023-02-28T01:08:50;4.80;;;3.77;;
3769;SDS011;1900;48.890;9.190;2023-02-28T01:11:16;4.10;;;3.63;;
3769;SDS011;1900;48.890;9.190;2023-02-28T01:13:42;6.20;;;3.83;;
3769;SDS011;1900;48.890;9.190;2023-02-28T01:16:11;5.40;;;3.83;;
3769;SDS011;1900;48.890;9.190;2023-02-28T01:18:37;4.80;;;3.63;;
3769;SDS011;1900;48.890;9.190;2023-02-28T01:21:07;5.70;;;4.00;;
3769;SDS011;1900;48.890;9.190;2023-02-28T01:23:39;6.93;;;3.60;;
3769;SDS011;1900;48.890;9.190;2023-02-28T01:26:06;4.40;;;3.40;;
3769;SDS011;1900;48.890;9.190;2023-02-28T01:28:38;4.77;;;3.57;;
3769;SDS011;1900;48.890;9.190;2023-02-28T01:31:04;9.30;;;4.40;;
3769;SDS011;1900;48.890;9.190;2023-02-28T01:33:30;4.23;;;3.23;;
3769;SDS011;1900;48.890;9.190;2023-02-28T01:36:01;5.27;;;3.50;;
3769;SDS011;1900;48.890;9.190;2023-02-28T01:38:32;5.87;;;4.53;;
3769;SDS011;1900;48.890;9.190;2023-02-28T01:40:58;5.97;;;3.63;;
3769;SDS011;1900;48.890;9.190;2023-02-28T01:43:39;4.40;;;3.63;;
3769;SDS011;1900;48.890;9.190;2023-02-28T01:46:14;5.80;;;3.30;;
3769;SDS011;1900;48.890;9.190;2023-02-28T01:48:40;4.40;;;3.90;;
3769;SDS011;1900;48.890;9.190;2023-02-28T01:51:15;5.37;;;3.80;;
3769;SDS011;1900;48.890;9.190;2023-02-28T01:53:55;6.27;;;3.80;;
3769;SDS011;1900;48.890;9.190;2023-02-28T01:56:26;6.33;;;3.60;;
3769;SDS011;1900;48.890;9.190;2023-02-28T01:58:55;4.40;;;3.80;;
3769;SDS011;1900;48.890;9.190;2023-02-28T02:01:22;5.33;;;3.63;;
3769;SDS011;1900;48.890;9.190;2023-02-28T02:03:53;4.90;;;4.20;;
3769;SDS011;1900;48.890;9.190;2023-02-28T02:06:25;5.93;;;4.30;;
3769;SDS011;1900;48.890;9.190;2023-02-28T02:08:54;5.33;;;3.30;;
3769;SDS011;1900;48.890;9.190;2023-02-28T02:11:20;4.20;;;3.73;;
3769;SDS011;1900;48.890;9.190;2023-02-28T02:30:07;5.13;;;3.67;;
3769;SDS011;1900;48.890;9.190;2023-02-28T02:43:36;4.30;;;3.90;;
3769;SDS011;1900;48.890;9.190;2023-02-28T02:46:32;6.10;;;3.77;;
3769;SDS011;1900;48.890;9.190;2023-02-28T02:49:03;5.40;;;4.30;;
3769;SDS011;1900;48.890;9.190;2023-02-28T02:51:34;4.67;;;3.90;;
3769;SDS011;1900;48.890;9.190;2023-02-28T02:54:06;7.80;;;3.40;;
3769;SDS011;1900;48.890;9.190;2023-02-28T02:56:36;4.17;;;3.67;;
3769;SDS011;1900;48.890;9.190;2023-02-28T02:59:06;6.23;;;4.00;;
3769;SDS011;1900;48.890;9.190;2023-02-28T03:01:34;4.50;;;4.10;;
3769;SDS011;1900;48.890;9.190;2023-02-28T03:04:04;7.90;;;4.07;;
3769;SDS011;1900;48.890;9.190;2023-02-28T03:06:33;4.70;;;3.87;;
3769;SDS011;1900;48.890;9.190;2023-02-28T03:09:00;6.37;;;4.30;;
3769;SDS011;1900;48.890;9.190;2023-02-28T03:11:27;5.70;;;4.20;;
3769;SDS011;1900;48.890;9.190;2023-02-28T03:17:05;4.80;;;4.00;;
3769;SDS011;1900;48.890;9.190;2023-02-28T03:20:07;5.23;;;3.73;;
3769;SDS011;1900;48.890;9.190;2023-02-28T03:25:52;6.07;;;3.97;;
3769;SDS011;1900;48.890;9.190;2023-02-28T03:28:51;8.73;;;5.37;;
3769;SDS011;1900;48.890;9.190;2023-02-28T03:31:37;10.00;;;4.50;;
3769;SDS011;1900;48.890;9.190;2023-02-28T03:34:26;6.33;;;4.20;;
3769;SDS011;1900;48.890;9.190;2023-02-28T03:37:00;5.77;;;4.83;;
3769;SDS011;1900;48.890;9.190;2023-02-28T03:39:53;5.43;;;3.87;;
3769;SDS011;1900;48.890;9.190;2023-02-28T03:42:25;5.30;;;4.80;;
3769;SDS011;1900;48.890;9.190;2023-02-28T03:47:23;5.43;;;3.73;;
3769;SDS011;1900;48.890;9.190;2023-02-28T03:52:35;7.37;;;4.37;;
3769;SDS011;1900;48.890;9.190;2023-02-28T03:55:10;5.70;;;4.10;;
3769;SDS011;1900;48.890;9.190;2023-02-28T03:57:41;10.20;;;5.77;;
3769;SDS011;1900;48.890;9.190;2023-02-28T04:00:29;5.37;;;4.70;;
3769;SDS011;1900;48.890;9.190;2023-02-28T04:03:00;6.03;;;4.50;;
3769;SDS011;1900;48.890;9.190;2023-02-28T04:05:27;7.30;;;4.33;;
3769;SDS011;1900;48.890;9.190;2023-02-28T04:07:53;5.80;;;4.60;;
3769;SDS011;1900;48.890;9.190;2023-02-28T04:10:19;5.20;;;3.97;;
3769;SDS011;1900;48.890;9.190;2023-02-28T04:12:45;6.27;;;4.93;;
3769;SDS011;1900;48.890;9.190;2023-02-28T04:15:10;5.63;;;4.00;;
3769;SDS011;1900;48.890;9.190;2023-02-28T04:17:36;8.87;;;4.63;;
3769;SDS011;1900;48.890;9.190;2023-02-28T04:20:03;7.07;;;5.07;;
3769;SDS011;1900;48.890;9.190;2023-02-28T04:22:34;7.73;;;4.67;;
3769;SDS011;1900;48.890;9.190;2023-02-28T04:25:00;6.10;;;4.23;;
3769;SDS011;1900;48.890;9.190;2023-02-28T04:27:25;6.17;;;4.70;;
3769;SDS011;1900;48.890;9.190;2023-02-28T04:29:51;6.63;;;4.63;;
3769;SDS011;1900;48.890;9.190;2023-02-28T04:32:17;6.37;;;4.50;;
3769;SDS011;1900;48.890;9.190;2023-02-28T04:34:42;8.70;;;5.13;;
3769;SDS011;1900;48.890;9.190;2023-02-28T04:37:08;7.17;;;4.60;;
3769;SDS011;1900;48.890;9.190;2023-02-28T04:39:35;6.73;;;4.40;;
3769;SDS011;1900;48.890;9.190;2023-02-28T04:42:01;8.43;;;3.80;;
3769;SDS011;1900;48.890;9.190;2023-02-28T04:44:27;7.63;;;5.83;;
3769;SDS011;1900;48.890;9.190;2023-02-28T04:46:53;5.60;;;4.40;;
3769;SDS011;1900;48.890;9.190;2023-02-28T04:49:18;5.67;;;4.60;;
3769;SDS011;1900;48.890;9.190;2023-02-28T04:51:44;8.13;;;4.67;;
3769;SDS011;1900;48.890;9.190;2023-02-28T04:54:09;7.10;;;4.33;;
3769;SDS011;1900;48.890;9.190;2023-02-28T04:56:35;6.40;;;4.70;;
3769;SDS011;1900;48.890;9.190;2023-02-28T04:59:01;8.33;;;3.90;;
3769;SDS011;1900;48.890;9.190;2023-02-28T05:01:28;5.17;;;4.30;;
3769;SDS011;1900;48.890;9.190;2023-02-28T05:03:55;8.50;;;4.73;;
3769;SDS011;1900;48.890;9.190;2023-02-28T05:06:23;6.00;;;4.83;;
3769;SDS011;1900;48.890;9.190;2023-02-28T05:08:51;5.83;;;4.50;;
3769;SDS011;1900;48.890;9.190;2023-02-28T05:11:19;7.63;;;4.83;;
3769;SDS011;1900;48.890;9.190;2023-02-28T05:13:45;5.77;;;4.90;;
3769;SDS011;1900;48.890;9.190;2023-02-28T05:16:12;5.53;;;4.77;;
3769;SDS011;1900;48.890;9.190;2023-02-28T05:18:38;7.93;;;5.20;;
3769;SDS011;1900;48.890;9.190;2023-02-28T05:21:04;6.80;;;4.47;;
3769;SDS011;1900;48.890;9.190;2023-02-28T05:23:30;9.20;;;4.93;;
3769;SDS011;1900;48.890;9.190;2023-02-28T05:25:56;7.33;;;5.20;;
3769;SDS011;1900;48.890;9.190;2023-02-28T05:28:22;7.33;;;5.20;;
3769;SDS011;1900;48.890;9.190;2023-02-28T05:30:47;7.00;;;4.80;;
3769;SDS011;1900;48.890;9.190;2023-02-28T05:33:13;10.57;;;5.20;;
3769;SDS011;1900;48.890;9.190;2023-02-28T05:35:39;7.37;;;4.37;;
3769;SDS011;1900;48.890;9.190;2023-02-28T05:38:06;6.47;;;5.20;;
3769;SDS011;1900;48.890;9.190;2023-02-28T05:40:32;6.87;;;5.00;;
3769;SDS011;1900;48.890;9.190;2023-02-28T05:42:58;6.00;;;4.50;;
3769;SDS011;1900;48.890;9.190;2023-02-28T05:45:23;6.30;;;5.60;;
3769;SDS011;1900;48.890;9.190;2023-02-28T05:47:52;7.20;;;4.90;;
3769;SDS011;1900;48.890;9.190;2023-02-28T05:50:18;13.43;;;5.30;;
3769;SDS011;1900;48.890;9.190;2023-02-28T05:52:44;8.77;;;5.93;;
3769;SDS011;1900;48.890;9.190;2023-02-28T05:55:15;12.30;;;7.33;;
3769;SDS011;1900;48.890;9.190;2023-02-28T05:57:40;8.07;;;5.60;;
3769;SDS011;1900;48.890;9.190;2023-02-28T06:00:07;8.27;;;5.30;;
3769;SDS011;1900;48.890;9.190;2023-02-28T06:02:38;7.50;;;5.73;;
3769;SDS011;1900;48.890;9.190;2023-02-28T06:05:05;4.97;;;4.20;;
3769;SDS011;1900;48.890;9.190;2023-02-28T06:07:37;9.43;;;5.90;;
3769;SDS011;1900;48.890;9.190;2023-02-28T06:10:03;7.60;;;5.43;;
3769;SDS011;1900;48.890;9.190;2023-02-28T06:12:29;8.47;;;5.10;;
3769;SDS011;1900;48.890;9.190;2023-02-28T06:14:55;11.90;;;5.27;;
3769;SDS011;1900;48.890;9.190;2023-02-28T06:17:20;8.10;;;5.43;;
3769;SDS011;1900;48.890;9.190;2023-02-28T06:19:46;6.97;;;5.57;;
3769;SDS011;1900;48.890;9.190;2023-02-28T06:22:13;12.60;;;6.57;;
3769;SDS011;1900;48.890;9.190;2023-02-28T06:24:38;8.10;;;5.43;;
3769;SDS011;1900;48.890;9.190;2023-02-28T06:27:04;7.40;;;5.63;;
3769;SDS011;1900;48.890;9.190;2023-02-28T06:29:33;5.50;;;4.97;;
3769;SDS011;1900;48.890;9.190;2023-02-28T06:32:00;10.13;;;5.20;;
3769;SDS011;1900;48.890;9.190;2023-02-28T06:34:26;8.47;;;5.67;;
3769;SDS011;1900;48.890;9.190;2023-02-28T06:36:52;9.00;;;5.93;;
3769;SDS011;1900;48.890;9.190;2023-02-28T06:39:17;9.80;;;6.00;;
3769;SDS011;1900;48.890;9.190;2023-02-28T06:41:43;9.03;;;6.27;;
3769;SDS011;1900;48.890;9.190;2023-02-28T06:44:15;7.30;;;5.90;;
3769;SDS011;1900;48.890;9.190;2023-02-28T06:46:42;13.70;;;8.20;;
3769;SDS011;1900;48.890;9.190;2023-02-28T06:49:10;9.10;;;5.73;;
3769;SDS011;1900;48.890;9.190;2023-02-28T06:51:37;8.07;;;6.17;;
3769;SDS011;1900;48.890;9.190;2023-02-28T06:54:08;12.70;;;6.10;;
3769;SDS011;1900;48.890;9.190;2023-02-28T06:56:34;7.97;;;5.50;;
3769;SDS011;1900;48.890;9.190;2023-02-28T06:59:00;7.57;;;5.90;;
3769;SDS011;1900;48.890;9.190;2023-02-28T07:01:26;7.20;;;5.13;;
3769;SDS011;1900;48.890;9.190;2023-02-28T07:03:53;8.63;;;5.70;;
3769;SDS011;1900;48.890;9.190;2023-02-28T07:06:20;12.47;;;6.10;;
3769;SDS011;1900;48.890;9.190;2023-02-28T07:08:47;7.63;;;5.30;;
3769;SDS011;1900;48.890;9.190;2023-02-28T07:11:14;17.43;;;6.73;;
3769;SDS011;1900;48.890;9.190;2023-02-28T07:13:40;6.27;;;5.13;;
3769;SDS011;1900;48.890;9.190;2023-02-28T07:16:07;11.90;;;7.13;;
3769;SDS011;1900;48.890;9.190;2023-02-28T07:18:34;9.53;;;6.47;;
3769;SDS011;1900;48.890;9.190;2023-02-28T07:21:01;10.80;;;6.93;;
3769;SDS011;1900;48.890;9.190;2023-02-28T07:23:28;8.87;;;6.10;;
3769;SDS011;1900;48.890;9.190;2023-02-28T07:25:53;17.23;;;6.90;;
3769;SDS011;1900;48.890;9.190;2023-02-28T07:28:19;11.20;;;8.17;;
3769;SDS011;1900;48.890;9.190;2023-02-28T07:30:45;8.53;;;5.83;;
3769;SDS011;1900;48.890;9.190;2023-02-28T07:33:11;11.80;;;6.23;;
3769;SDS011;1900;48.890;9.190;2023-02-28T07:35:36;10.43;;;6.50;;
3769;SDS011;1900;48.890;9.190;2023-02-28T07:38:02;9.93;;;6.07;;
3769;SDS011;1900;48.890;9.190;2023-02-28T07:40:28;7.90;;;5.83;;
3769;SDS011;1900;48.890;9.190;2023-02-28T07:42:54;9.03;;;6.33;;
3769;SDS011;1900;48.890;9.190;2023-02-28T07:45:20;10.73;;;6.77;;
3769;SDS011;1900;48.890;9.190;2023-02-28T07:47:46;10.93;;;6.30;;
3769;SDS011;1900;48.890;9.190;2023-02-28T07:50:13;11.20;;;7.40;;
3769;SDS011;1900;48.890;9.190;2023-02-28T07:52:40;6.97;;;5.83;;
3769;SDS011;1900;48.890;9.190;2023-02-28T07:55:07;15.37;;;6.63;;
3769;SDS011;1900;48.890;9.190;2023-02-28T07:57:34;9.70;;;6.47;;
3769;SDS011;1900;48.890;9.190;2023-02-28T08:00:00;9.50;;;6.50;;
3769;SDS011;1900;48.890;9.190;2023-02-28T08:02:36;10.80;;;6.83;;
3769;SDS011;1900;48.890;9.190;2023-02-28T08:05:02;9.40;;;6.37;;
3769;SDS011;1900;48.890;9.190;2023-02-28T08:07:28;7.57;;;6.30;;
3769;SDS011;1900;48.890;9.190;2023-02-28T08:09:53;7.70;;;6.13;;
3769;SDS011;1900;48.890;9.190;2023-02-28T08:12:19;12.50;;;7.20;;
3769;SDS011;1900;48.890;9.190;2023-02-28T08:14:45;7.70;;;6.30;;
3769;SDS011;1900;48.890;9.190;2023-02-28T08:17:11;7.40;;;5.37;;
3769;SDS011;1900;48.890;9.190;2023-02-28T08:19:37;11.67;;;6.80;;
3769;SDS011;1900;48.890;9.190;2023-02-28T08:22:03;11.90;;;6.70;;
3769;SDS011;1900;48.890;9.190;2023-02-28T08:24:29;13.37;;;7.17;;
3769;SDS011;1900;48.890;9.190;2023-02-28T08:26:55;11.93;;;7.43;;
3769;SDS011;1900;48.890;9.190;2023-02-28T08:29:21;14.70;;;7.00;;
3769;SDS011;1900;48.890;9.190;2023-02-28T08:31:47;9.30;;;6.80;;
3769;SDS011;1900;48.890;9.190;2023-02-28T08:34:13;11.03;;;6.67;;
3769;SDS011;1900;48.890;9.190;2023-02-28T08:36:41;12.30;;;8.10;;
3769;SDS011;1900;48.890;9.190;2023-02-28T08:39:07;14.87;;;9.13;;
3769;SDS011;1900;48.890;9.190;2023-02-28T08:41:34;10.20;;;7.73;;
3769;SDS011;1900;48.890;9.190;2023-02-28T08:43:59;11.43;;;7.00;;
3769;SDS011;1900;48.890;9.190;2023-02-28T08:46:26;13.53;;;7.10;;
3769;SDS011;1900;48.890;9.190;2023-02-28T08:48:55;10.73;;;7.07;;
3769;SDS011;1900;48.890;9.190;2023-02-28T08:51:25;8.30;;;6.10;;
3769;SDS011;1900;48.890;9.190;2023-02-28T08:53:55;11.93;;;7.73;;
3769;SDS011;1900;48.890;9.190;2023-02-28T08:56:24;10.33;;;7.40;;
3769;SDS011;1900;48.890;9.190;2023-02-28T08:58:51;11.20;;;7.87;;
3769;SDS011;1900;48.890;9.190;2023-02-28T09:01:22;10.57;;;6.80;;
3769;SDS011;1900;48.890;9.190;2023-02-28T09:03:50;8.27;;;6.87;;
3769;SDS011;1900;48.890;9.190;2023-02-28T09:06:17;11.60;;;7.90;;
3769;SDS011;1900;48.890;9.190;2023-02-28T09:08:44;11.10;;;8.33;;
3769;SDS011;1900;48.890;9.190;2023-02-28T09:11:10;10.17;;;6.77;;
3769;SDS011;1900;48.890;9.190;2023-02-28T09:13:36;11.77;;;7.67;;
3769;SDS011;1900;48.890;9.190;2023-02-28T09:16:03;14.70;;;7.50;;
3769;SDS011;1900;48.890;9.190;2023-02-28T09:18:30;12.40;;;7.40;;
3769;SDS011;1900;48.890;9.190;2023-02-28T09:20:56;9.87;;;7.33;;
3769;SDS011;1900;48.890;9.190;2023-02-28T09:23:22;10.57;;;7.47;;
3769;SDS011;1900;48.890;9.190;2023-02-28T09:25:50;11.60;;;7.13;;
3769;SDS011;1900;48.890;9.190;2023-02-28T09:28:17;10.73;;;7.20;;
3769;SDS011;1900;48.890;9.190;2023-02-28T09:30:45;14.67;;;8.10;;
3769;SDS011;1900;48.890;9.190;2023-02-28T09:33:12;13.10;;;8.13;;
3769;SDS011;1900;48.890;9.190;2023-02-28T09:35:38;13.83;;;8.50;;
3769;SDS011;1900;48.890;9.190;2023-02-28T09:38:04;10.37;;;6.63;;
3769;SDS011;1900;48.890;9.190;2023-02-28T09:40:34;12.23;;;7.90;;
3769;SDS011;1900;48.890;9.190;2023-02-28T09:43:34;10.23;;;6.77;;
3769;SDS011;1900;48.890;9.190;2023-02-28T09:46:23;12.87;;;7.53;;
3769;SDS011;1900;48.890;9.190;2023-02-28T09:48:53;10.17;;;7.93;;
3769;SDS011;1900;48.890;9.190;2023-02-28T09:54:11;14.50;;;7.73;;
3769;SDS011;1900;48.890;9.190;2023-02-28T09:56:44;11.40;;;8.47;;
3769;SDS011;1900;48.890;9.190;2023-02-28T09:59:26;14.80;;;8.77;;
3769;SDS011;1900;48.890;9.190;2023-02-28T10:02:10;12.40;;;8.00;;
3769;SDS011;1900;48.890;9.190;2023-02-28T10:05:02;12.90;;;8.27;;
3769;SDS011;1900;48.890;9.190;2023-02-28T10:13:15;12.47;;;7.63;;
3769;SDS011;1900;48.890;9.190;2023-02-28T10:15:50;14.20;;;8.57;;
3769;SDS011;1900;48.890;9.190;2023-02-28T10:18:24;12.97;;;8.50;;
3769;SDS011;1900;48.890;9.190;2023-02-28T10:20:55;15.07;;;8.97;;
3769;SDS011;1900;48.890;9.190;2023-02-28T10:23:28;11.90;;;9.03;;
3769;SDS011;1900;48.890;9.190;2023-02-28T10:26:18;11.50;;;8.67;;
3769;SDS011;1900;48.890;9.190;2023-02-28T10:28:44;11.50;;;7.47;;
3769;SDS011;1900;48.890;9.190;2023-02-28T10:31:17;13.50;;;8.07;;
3769;SDS011;1900;48.890;9.190;2023-02-28T10:33:44;9.30;;;7.70;;
3769;SDS011;1900;48.890;9.190;2023-02-28T10:36:14;12.07;;;8.67;;
3769;SDS011;1900;48.890;9.190;2023-02-28T10:38:41;14.70;;;8.57;;
3769;SDS011;1900;48.890;9.190;2023-02-28T10:41:09;13.10;;;8.57;;
3769;SDS011;1900;48.890;9.190;2023-02-28T10:43:38;13.77;;;8.50;;
3769;SDS011;1900;48.890;9.190;2023-02-28T10:48:38;14.03;;;9.00;;
3769;SDS011;1900;48.890;9.190;2023-02-28T10:51:17;11.00;;;8.40;;
3769;SDS011;1900;48.890;9.190;2023-02-28T10:53:53;11.70;;;8.33;;
3769;SDS011;1900;48.890;9.190;2023-02-28T11:01:15;13.13;;;9.03;;
3769;SDS011;1900;48.890;9.190;2023-02-28T11:03:46;14.70;;;8.93;;
3769;SDS011;1900;48.890;9.190;2023-02-28T11:06:16;11.43;;;8.13;;
3769;SDS011;1900;48.890;9.190;2023-02-28T11:08:45;9.60;;;8.00;;
3769;SDS011;1900;48.890;9.190;2023-02-28T11:11:13;14.33;;;8.80;;
3769;SDS011;1900;48.890;9.190;2023-02-28T11:13:39;42.57;;;20.60;;
3769;SDS011;1900;48.890;9.190;2023-02-28T11:16:05;24.60;;;12.67;;
3769;SDS011;1900;48.890;9.190;2023-02-28T11:23:51;16.80;;;9.27;;
3769;SDS011;1900;48.890;9.190;2023-02-28T11:26:43;15.00;;;9.90;;
3769;SDS011;1900;48.890;9.190;2023-02-28T11:29:16;18.83;;;11.80;;
3769;SDS011;1900;48.890;9.190;2023-02-28T11:32:00;15.57;;;9.57;;
3769;SDS011;1900;48.890;9.190;2023-02-28T11:34:38;11.50;;;7.67;;
3769;SDS011;1900;48.890;9.190;2023-02-28T11:37:08;14.87;;;9.43;;
3769;SDS011;1900;48.890;9.190;2023-02-28T11:39:39;13.33;;;8.60;;
3769;SDS011;1900;48.890;9.190;2023-02-28T11:52:54;12.70;;;9.40;;
3769;SDS011;1900;48.890;9.190;2023-02-28T11:55:30;11.97;;;8.37;;
3769;SDS011;1900;48.890;9.190;2023-02-28T12:00:59;16.07;;;9.10;;
3769;SDS011;1900;48.890;9.190;2023-02-28T12:09:39;11.47;;;8.23;;
3769;SDS011;1900;48.890;9.190;2023-02-28T12:18:35;13.43;;;8.90;;
3769;SDS011;1900;48.890;9.190;2023-02-28T12:21:13;11.27;;;7.83;;
3769;SDS011;1900;48.890;9.190;2023-02-28T12:26:48;9.87;;;7.20;;
3769;SDS011;1900;48.890;9.190;2023-02-28T12:29:23;9.10;;;7.07;;
3769;SDS011;1900;48.890;9.190;2023-02-28T12:32:01;12.93;;;9.67;;
3769;SDS011;1900;48.890;9.190;2023-02-28T12:34:46;9.93;;;8.33;;
3769;SDS011;1900;48.890;9.190;2023-02-28T12:37:27;9.90;;;8.53;;
3769;SDS011;1900;48.890;9.190;2023-02-28T12:40:01;10.90;;;7.37;;
3769;SDS011;1900;48.890;9.190;2023-02-28T12:42:36;12.00;;;7.90;;
3769;SDS011;1900;48.890;9.190;2023-02-28T12:45:22;13.30;;;7.70;;
3769;SDS011;1900;48.890;9.190;2023-02-28T12:47:50;13.27;;;7.70;;
3769;SDS011;1900;48.890;9.190;2023-02-28T12:50:22;10.47;;;8.30;;
3769;SDS011;1900;48.890;9.190;2023-02-28T12:58:05;11.70;;;8.10;;
3769;SDS011;1900;48.890;9.190;2023-02-28T13:06:27;11.03;;;7.57;;
3769;SDS011;1900;48.890;9.190;2023-02-28T13:09:18;10.07;;;7.70;;
3769;SDS011;1900;48.890;9.190;2023-02-28T13:11:47;10.30;;;8.03;;
3769;SDS011;1900;48.890;9.190;2023-02-28T13:16:58;12.50;;;8.80;;
3769;SDS011;1900;48.890;9.190;2023-02-28T13:19:36;12.23;;;8.50;;
3769;SDS011;1900;48.890;9.190;2023-02-28T13:22:04;12.17;;;8.83;;
3769;SDS011;1900;48.890;9.190;2023-02-28T13:27:20;13.87;;;8.80;;
3769;SDS011;1900;48.890;9.190;2023-02-28T13:38:46;10.47;;;8.27;;
3769;SDS011;1900;48.890;9.190;2023-02-28T14:06:29;13.67;;;7.70;;
3769;SDS011;1900;48.890;9.190;2023-02-28T14:09:01;12.70;;;7.87;;
3769;SDS011;1900;48.890;9.190;2023-02-28T14:11:39;11.47;;;8.07;;
3769;SDS011;1900;48.890;9.190;2023-02-28T14:14:08;12.50;;;7.43;;
3769;SDS011;1900;48.890;9.190;2023-02-28T14:16:41;11.83;;;8.40;;
3769;SDS011;1900;48.890;9.190;2023-02-28T14:19:29;10.73;;;7.50;;
3769;SDS011;1900;48.890;9.190;2023-02-28T14:29:51;8.90;;;7.70;;
3769;SDS011;1900;48.890;9.190;2023-02-28T14:32:35;10.27;;;8.03;;
3769;SDS011;1900;48.890;9.190;2023-02-28T14:38:05;12.20;;;8.47;;
3769;SDS011;1900;48.890;9.190;2023-02-28T14:40:38;12.10;;;9.00;;
3769;SDS011;1900;48.890;9.190;2023-02-28T14:43:05;15.20;;;8.20;;
3769;SDS011;1900;48.890;9.190;2023-02-28T14:45:43;12.83;;;8.00;;
3769;SDS011;1900;48.890;9.190;2023-02-28T14:48:14;9.13;;;8.23;;
3769;SDS011;1900;48.890;9.190;2023-02-28T14:50:42;11.27;;;7.90;;
3769;SDS011;1900;48.890;9.190;2023-02-28T14:53:18;12.20;;;8.63;;
3769;SDS011;1900;48.890;9.190;2023-02-28T14:55:46;10.33;;;7.97;;
3769;SDS011;1900;48.890;9.190;2023-02-28T14:58:25;11.80;;;7.43;;
3769;SDS011;1900;48.890;9.190;2023-02-28T15:00:52;12.10;;;8.33;;
3769;SDS011;1900;48.890;9.190;2023-02-28T15:03:38;11.57;;;9.20;;
3769;SDS011;1900;48.890;9.190;2023-02-28T15:06:05;11.60;;;8.20;;
3769;SDS011;1900;48.890;9.190;2023-02-28T15:08:38;9.03;;;7.73;;
3769;SDS011;1900;48.890;9.190;2023-02-28T15:16:06;11.03;;;8.07;;
3769;SDS011;1900;48.890;9.190;2023-02-28T15:23:56;16.73;;;9.23;;
3769;SDS011;1900;48.890;9.190;2023-02-28T15:26:37;11.30;;;8.40;;
3769;SDS011;1900;48.890;9.190;2023-02-28T15:29:06;11.37;;;9.43;;
3769;SDS011;1900;48.890;9.190;2023-02-28T15:31:41;12.20;;;8.20;;
3769;SDS011;1900;48.890;9.190;2023-02-28T15:34:20;12.97;;;7.73;;
3769;SDS011;1900;48.890;9.190;2023-02-28T15:36:58;15.27;;;8.50;;
3769;SDS011;1900;48.890;9.190;2023-02-28T15:39:25;12.93;;;9.57;;
3769;SDS011;1900;48.890;9.190;2023-02-28T15:41:52;14.87;;;10.37;;
3769;SDS011;1900;48.890;9.190;2023-02-28T15:44:45;12.90;;;8.80;;
3769;SDS011;1900;48.890;9.190;2023-02-28T15:50:05;17.20;;;9.03;;
3769;SDS011;1900;48.890;9.190;2023-02-28T15:52:37;12.43;;;8.63;;
3769;SDS011;1900;48.890;9.190;2023-02-28T15:55:08;17.13;;;9.43;;
3769;SDS011;1900;48.890;9.190;2023-02-28T15:57:43;13.93;;;10.10;;
3769;SDS011;1900;48.890;9.190;2023-02-28T16:00:12;13.20;;;9.60;;
3769;SDS011;1900;48.890;9.190;2023-02-28T16:02:40;11.97;;;9.17;;
3769;SDS011;1900;48.890;9.190;2023-02-28T16:07:32;11.77;;;9.07;;
3769;SDS011;1900;48.890;9.190;2023-02-28T16:09:59;14.13;;;10.13;;
3769;SDS011;1900;48.890;9.190;2023-02-28T16:12:26;17.07;;;10.20;;
3769;SDS011;1900;48.890;9.190;2023-02-28T16:14:55;14.07;;;9.30;;
3769;SDS011;1900;48.890;9.190;2023-02-28T16:17:26;12.80;;;9.30;;
3769;SDS011;1900;48.890;9.190;2023-02-28T16:19:54;14.20;;;9.70;;
3769;SDS011;1900;48.890;9.190;2023-02-28T16:22:20;16.53;;;10.37;;
3769;SDS011;1900;48.890;9.190;2023-02-28T16:24:47;14.60;;;10.00;;
3769;SDS011;1900;48.890;9.190;2023-02-28T16:27:35;15.40;;;10.60;;
3769;SDS011;1900;48.890;9.190;2023-02-28T16:30:01;16.67;;;10.17;;
3769;SDS011;1900;48.890;9.190;2023-02-28T16:32:27;14.70;;;10.07;;
3769;SDS011;1900;48.890;9.190;2023-02-28T16:34:53;16.03;;;10.37;;
3769;SDS011;1900;48.890;9.190;2023-02-28T16:37:19;12.00;;;9.33;;
3769;SDS011;1900;48.890;9.190;2023-02-28T16:39:45;19.37;;;9.90;;
3769;SDS011;1900;48.890;9.190;2023-02-28T16:42:24;16.93;;;11.00;;
3769;SDS011;1900;48.890;9.190;2023-02-28T16:44:52;16.87;;;10.80;;
3769;SDS011;1900;48.890;9.190;2023-02-28T16:47:18;14.60;;;10.00;;
3769;SDS011;1900;48.890;9.190;2023-02-28T16:49:44;15.67;;;10.40;;
3769;SDS011;1900;48.890;9.190;2023-02-28T16:52:10;14.37;;;10.50;;
3769;SDS011;1900;48.890;9.190;2023-02-28T16:54:37;18.20;;;10.27;;
3769;SDS011;1900;48.890;9.190;2023-02-28T16:57:04;19.63;;;10.40;;
3769;SDS011;1900;48.890;9.190;2023-02-28T16:59:31;15.73;;;9.73;;
3769;SDS011;1900;48.890;9.190;2023-02-28T17:01:57;17.07;;;9.40;;
3769;SDS011;1900;48.890;9.190;2023-02-28T17:04:24;15.70;;;9.97;;
3769;SDS011;1900;48.890;9.190;2023-02-28T17:06:51;16.50;;;10.00;;
3769;SDS011;1900;48.890;9.190;2023-02-28T17:09:18;16.00;;;9.53;;
3769;SDS011;1900;48.890;9.190;2023-02-28T17:11:45;14.80;;;10.70;;
3769;SDS011;1900;48.890;9.190;2023-02-28T17:14:11;14.93;;;10.40;;
3769;SDS011;1900;48.890;9.190;2023-02-28T17:16:38;13.20;;;9.03;;
3769;SDS011;1900;48.890;9.190;2023-02-28T17:19:06;14.77;;;9.60;;
3769;SDS011;1900;48.890;9.190;2023-02-28T17:21:36;17.80;;;10.33;;
3769;SDS011;1900;48.890;9.190;2023-02-28T17:24:02;15.23;;;10.13;;
3769;SDS011;1900;48.890;9.190;2023-02-28T17:26:28;15.50;;;10.70;;
3769;SDS011;1900;48.890;9.190;2023-02-28T17:28:55;14.30;;;10.70;;
3769;SDS011;1900;48.890;9.190;2023-02-28T17:31:24;18.03;;;11.77;;
3769;SDS011;1900;48.890;9.190;2023-02-28T17:33:51;16.20;;;11.47;;
3769;SDS011;1900;48.890;9.190;2023-02-28T17:36:21;15.43;;;10.80;;
3769;SDS011;1900;48.890;9.190;2023-02-28T17:38:49;15.20;;;10.17;;
3769;SDS011;1900;48.890;9.190;2023-02-28T17:41:16;16.93;;;11.00;;
3769;SDS011;1900;48.890;9.190;2023-02-28T17:43:42;15.10;;;10.10;;
3769;SDS011;1900;48.890;9.190;2023-02-28T17:46:18;18.63;;;12.27;;
3769;SDS011;1900;48.890;9.190;2023-02-28T17:48:49;19.97;;;11.73;;
3769;SDS011;1900;48.890;9.190;2023-02-28T17:51:16;16.10;;;12.13;;
3769;SDS011;1900;48.890;9.190;2023-02-28T17:53:43;16.97;;;11.57;;
3769;SDS011;1900;48.890;9.190;2023-02-28T17:56:13;17.70;;;10.77;;
3769;SDS011;1900;48.890;9.190;2023-02-28T17:58:49;16.47;;;11.77;;
3769;SDS011;1900;48.890;9.190;2023-02-28T18:01:17;18.93;;;11.73;;
3769;SDS011;1900;48.890;9.190;2023-02-28T18:03:45;18.93;;;11.80;;
3769;SDS011;1900;48.890;9.190;2023-02-28T18:06:14;17.20;;;10.77;;